地図

経路データ

SID SEASON NUMBER BASIN SUBBASIN NAME ISO_TIME NATURE LAT LON WMO_WIND WMO_PRES WMO_AGENCY TRACK_TYPE DIST2LAND LANDFALL IFLAG USA_AGENCY USA_ATCF_ID USA_LAT USA_LON USA_RECORD USA_STATUS USA_WIND USA_PRES USA_SSHS USA_R34_NE USA_R34_SE USA_R34_SW USA_R34_NW USA_R50_NE USA_R50_SE USA_R50_SW USA_R50_NW USA_R64_NE USA_R64_SE USA_R64_SW USA_R64_NW USA_POCI USA_ROCI USA_RMW USA_EYE TOKYO_LAT TOKYO_LON TOKYO_GRADE TOKYO_WIND TOKYO_PRES TOKYO_R50_DIR TOKYO_R50_LONG TOKYO_R50_SHORT TOKYO_R30_DIR TOKYO_R30_LONG TOKYO_R30_SHORT TOKYO_LAND CMA_LAT CMA_LON CMA_CAT CMA_WIND CMA_PRES HKO_LAT HKO_LON HKO_CAT HKO_WIND HKO_PRES NEWDELHI_LAT NEWDELHI_LON NEWDELHI_GRADE NEWDELHI_WIND NEWDELHI_PRES NEWDELHI_CI NEWDELHI_DP NEWDELHI_POCI REUNION_LAT REUNION_LON REUNION_TYPE REUNION_WIND REUNION_PRES REUNION_TNUM REUNION_CI REUNION_RMW REUNION_R34_NE REUNION_R34_SE REUNION_R34_SW REUNION_R34_NW REUNION_R50_NE REUNION_R50_SE REUNION_R50_SW REUNION_R50_NW REUNION_R64_NE REUNION_R64_SE REUNION_R64_SW REUNION_R64_NW BOM_LAT BOM_LON BOM_TYPE BOM_WIND BOM_PRES BOM_TNUM BOM_CI BOM_RMW BOM_R34_NE BOM_R34_SE BOM_R34_SW BOM_R34_NW BOM_R50_NE BOM_R50_SE BOM_R50_SW BOM_R50_NW BOM_R64_NE BOM_R64_SE BOM_R64_SW BOM_R64_NW BOM_ROCI BOM_POCI BOM_EYE BOM_POS_METHOD BOM_PRES_METHOD NADI_LAT NADI_LON NADI_CAT NADI_WIND NADI_PRES WELLINGTON_LAT WELLINGTON_LON WELLINGTON_WIND WELLINGTON_PRES DS824_LAT DS824_LON DS824_STAGE DS824_WIND DS824_PRES TD9636_LAT TD9636_LON TD9636_STAGE TD9636_WIND TD9636_PRES TD9635_LAT TD9635_LON TD9635_WIND TD9635_PRES TD9635_ROCI NEUMANN_LAT NEUMANN_LON NEUMANN_CLASS NEUMANN_WIND NEUMANN_PRES MLC_LAT MLC_LON MLC_CLASS MLC_WIND MLC_PRES USA_GUST BOM_GUST BOM_GUST_PER REUNION_GUST REUNION_GUST_PER USA_SEAHGT USA_SEARAD_NE USA_SEARAD_SE USA_SEARAD_SW USA_SEARAD_NW STORM_SPEED STORM_DIR
1897318N09121 1897 44 WP MM NOT_NAMED 1897-11-14 04:00:00 NR 9.10000 121.100 main 162 162 __________O___ -1 9.10000 121.100 4 16 293
1897318N09121 1897 44 WP MM NOT_NAMED 1897-11-14 06:00:00 NR 9.31102 120.590 main 164 86 __________P___ -1 9.31102 120.590 4 16 293
1897318N09121 1897 44 WP MM NOT_NAMED 1897-11-14 09:00:00 NR 9.62905 119.823 main 86 0 __________P___ -1 9.62905 119.823 4 17 293
1897318N09121 1897 44 WP MM NOT_NAMED 1897-11-14 12:00:00 NR 9.95261 119.049 main 0 0 __________P___ -1 9.95261 119.049 4 17 293
1897318N09121 1897 44 WP MM NOT_NAMED 1897-11-14 15:00:00 NR 10.2860 118.264 main 59 69 __________P___ -1 10.2860 118.264 4 17 293
1897318N09121 1897 44 WP MM NOT_NAMED 1897-11-14 16:00:00 NR 10.4000 118.000 main 93 93 __________O___ -1 10.4000 118.000 4 17 294
1897318N09121 1897 44 WP MM NOT_NAMED 1897-11-14 18:00:00 NR 10.6332 117.467 main 148 164 __________P___ -1 10.6332 117.467 4 17 294
1897318N09121 1897 44 WP MM NOT_NAMED 1897-11-14 21:00:00 NR 10.9957 116.668 main 234 240 __________P___ -1 10.9957 116.668 4 17 295
1897318N09121 1897 44 WP MM NOT_NAMED 1897-11-15 00:00:00 NR 11.3732 115.886 main 322 329 __________P___ -1 11.3732 115.886 4 17 297
1897318N09121 1897 44 WP MM NOT_NAMED 1897-11-15 03:00:00 NR 11.7658 115.138 main 414 414 __________P___ -1 11.7658 115.138 4 17 299
1897318N09121 1897 44 WP MM NOT_NAMED 1897-11-15 04:00:00 NR 11.9000 114.900 main 438 438 __________O___ -1 11.9000 114.900 4 16 300
1897318N09121 1897 44 WP MM NOT_NAMED 1897-11-15 06:00:00 NR 12.1609 114.436 main 500 466 __________P___ -1 12.1609 114.436 4 15 301
1897318N09121 1897 44 WP MM NOT_NAMED 1897-11-15 09:00:00 NR 12.5652 113.777 main 466 401 __________P___ -1 12.5652 113.777 4 15 304
1897318N09121 1897 44 WP MM NOT_NAMED 1897-11-15 12:00:00 NR 12.9903 113.160 main 401 340 __________P___ -1 12.9903 113.160 4 15 307
1897318N09121 1897 44 WP MM NOT_NAMED 1897-11-15 15:00:00 NR 13.4423 112.584 main 340 323 __________P___ -1 13.4423 112.584 4 14 310
1897318N09121 1897 44 WP MM NOT_NAMED 1897-11-15 16:00:00 NR 13.6000 112.400 main 323 291 __________O___ -1 13.6000 112.400 4 15 310
1897318N09121 1897 44 WP MM NOT_NAMED 1897-11-15 18:00:00 NR 13.9139 112.009 main 291 241 __________P___ -1 13.9139 112.009 4 15 311
1897318N09121 1897 44 WP MM NOT_NAMED 1897-11-15 21:00:00 NR 14.4100 111.454 main 243 204 __________P___ -1 14.4100 111.454 4 15 315
1897318N09121 1897 44 WP MM NOT_NAMED 1897-11-16 00:00:00 NR 14.9388 110.953 main 205 174 __________P___ -1 14.9388 110.953 4 14 321
1897318N09121 1897 44 WP MM NOT_NAMED 1897-11-16 03:00:00 NR 15.5034 110.524 main 174 166 __________P___ -1 15.5034 110.524 4 14 325
1897318N09121 1897 44 WP MM NOT_NAMED 1897-11-16 04:00:00 NR 15.7000 110.400 main 170 159 __________O___ -1 15.7000 110.400 4 15 328
1897318N09121 1897 44 WP MM NOT_NAMED 1897-11-16 06:00:00 NR 16.1201 110.130 main 163 157 __________P___ -1 16.1201 110.130 4 15 332
1897318N09121 1897 44 WP MM NOT_NAMED 1897-11-16 09:00:00 NR 16.7824 109.793 main 157 78 __________P___ -1 16.7824 109.793 4 14 338
1897318N09121 1897 44 WP MM NOT_NAMED 1897-11-16 12:00:00 NR 17.4528 109.568 main 78 11 __________P___ -1 17.4528 109.568 4 14 348
1897318N09121 1897 44 WP MM NOT_NAMED 1897-11-16 15:00:00 NR 18.0970 109.488 main 11 0 __________P___ -1 18.0970 109.488 4 13 356
1897318N09121 1897 44 WP MM NOT_NAMED 1897-11-16 16:00:00 NR 18.3000 109.500 main 0 0 __________O___ -1 18.3000 109.500 4 12 8
1897318N09121 1897 44 WP MM NOT_NAMED 1897-11-16 18:00:00 NR 18.6831 109.584 main 0 0 __________P___ -1 18.6831 109.584 4 12 20
1897318N09121 1897 44 WP MM NOT_NAMED 1897-11-16 21:00:00 NR 19.2090 109.841 main 0 0 __________P___ -1 19.2090 109.841 4 12 30
1897318N09121 1897 44 WP MM NOT_NAMED 1897-11-17 00:00:00 NR 19.6921 110.211 main 0 0 __________P___ -1 19.6921 110.211 4 12 39
1897318N09121 1897 44 WP MM NOT_NAMED 1897-11-17 03:00:00 NR 20.1499 110.648 main 0 11 __________P___ -1 20.1499 110.648 4 12 42
1897318N09121 1897 44 WP MM NOT_NAMED 1897-11-17 04:00:00 NR 20.3000 110.800 main 24 __________O___ -1 20.3000 110.800 4 12 43

デジタル台風データ・検索

IBTrACS Databaseについて

本データベースは、米国NOAAが公開する1842年以降の世界の熱帯低気圧のベストトラックデータアーカイブInternational Best Track Archive for Climate Stewardship (IBTrACS)を、ウェブで閲覧しやすい形式に変換したものです。

最終更新日:2021-12-01